sensor_id;sensor_type;location;lat;lon;timestamp;pressure;altitude;pressure_sealevel;temperature;humidity
19600;BME280;9947;57.722;12.012;2023-04-20T00:01:55;102775.53;;;3.13;100.00
19600;BME280;9947;57.722;12.012;2023-04-20T00:04:26;102775.59;;;3.07;100.00
19600;BME280;9947;57.722;12.012;2023-04-20T00:06:57;102773.81;;;3.06;100.00
19600;BME280;9947;57.722;12.012;2023-04-20T00:09:27;102774.75;;;3.03;100.00
19600;BME280;9947;57.722;12.012;2023-04-20T00:11:58;102773.94;;;2.97;100.00
19600;BME280;9947;57.722;12.012;2023-04-20T00:14:28;102778.50;;;2.90;100.00
19600;BME280;9947;57.722;12.012;2023-04-20T00:16:56;102775.00;;;2.82;100.00
19600;BME280;9947;57.722;12.012;2023-04-20T00:19:28;102768.78;;;2.82;100.00
19600;BME280;9947;57.722;12.012;2023-04-20T00:21:57;102774.16;;;2.78;100.00
19600;BME280;9947;57.722;12.012;2023-04-20T00:24:28;102772.38;;;2.79;100.00
19600;BME280;9947;57.722;12.012;2023-04-20T00:26:55;102768.03;;;2.70;100.00
19600;BME280;9947;57.722;12.012;2023-04-20T00:29:23;102764.50;;;2.70;100.00
19600;BME280;9947;57.722;12.012;2023-04-20T00:31:50;102761.00;;;2.65;100.00
19600;BME280;9947;57.722;12.012;2023-04-20T00:34:18;102756.59;;;2.59;100.00
19600;BME280;9947;57.722;12.012;2023-04-20T00:36:50;102756.56;;;2.62;100.00
19600;BME280;9947;57.722;12.012;2023-04-20T00:39:17;102755.72;;;2.60;100.00
19600;BME280;9947;57.722;12.012;2023-04-20T00:41:51;102760.25;;;2.51;100.00
19600;BME280;9947;57.722;12.012;2023-04-20T00:44:18;102751.38;;;2.48;100.00
19600;BME280;9947;57.722;12.012;2023-04-20T00:46:48;102755.03;;;2.40;100.00
19600;BME280;9947;57.722;12.012;2023-04-20T00:49:18;102755.97;;;2.33;100.00
19600;BME280;9947;57.722;12.012;2023-04-20T00:51:47;102749.84;;;2.25;100.00
19600;BME280;9947;57.722;12.012;2023-04-20T00:54:14;102748.13;;;2.19;100.00
19600;BME280;9947;57.722;12.012;2023-04-20T00:56:42;102746.44;;;2.07;100.00
19600;BME280;9947;57.722;12.012;2023-04-20T00:59:10;102749.19;;;2.00;100.00
19600;BME280;9947;57.722;12.012;2023-04-20T01:01:40;102750.19;;;1.91;100.00
19600;BME280;9947;57.722;12.012;2023-04-20T01:04:10;102753.78;;;1.87;100.00
19600;BME280;9947;57.722;12.012;2023-04-20T01:06:49;102750.19;;;1.91;100.00
19600;BME280;9947;57.722;12.012;2023-04-20T01:09:20;102751.16;;;1.82;100.00
19600;BME280;9947;57.722;12.012;2023-04-20T01:11:49;102747.63;;;1.77;100.00
19600;BME280;9947;57.722;12.012;2023-04-20T01:14:18;102751.19;;;1.75;100.00
19600;BME280;9947;57.722;12.012;2023-04-20T01:16:46;102752.13;;;1.69;100.00
19600;BME280;9947;57.722;12.012;2023-04-20T01:19:16;102749.53;;;1.63;100.00
19600;BME280;9947;57.722;12.012;2023-04-20T01:21:47;102756.66;;;1.61;100.00
19600;BME280;9947;57.722;12.012;2023-04-20T01:24:20;102764.69;;;1.50;100.00
19600;BME280;9947;57.722;12.012;2023-04-20T01:26:49;102751.41;;;1.47;100.00
19600;BME280;9947;57.722;12.012;2023-04-20T01:29:21;102754.03;;;1.50;100.00
19600;BME280;9947;57.722;12.012;2023-04-20T01:31:51;102762.06;;;1.47;100.00
19600;BME280;9947;57.722;12.012;2023-04-20T01:34:18;102746.06;;;1.49;100.00
19600;BME280;9947;57.722;12.012;2023-04-20T01:36:45;102745.19;;;1.45;100.00
19600;BME280;9947;57.722;12.012;2023-04-20T01:39:12;102749.66;;;1.43;100.00
19600;BME280;9947;57.722;12.012;2023-04-20T01:41:43;102747.97;;;1.33;100.00
19600;BME280;9947;57.722;12.012;2023-04-20T01:44:10;102750.59;;;1.36;100.00
19600;BME280;9947;57.722;12.012;2023-04-20T01:46:37;102743.50;;;1.34;100.00
19600;BME280;9947;57.722;12.012;2023-04-20T01:49:04;102747.03;;;1.37;100.00
19600;BME280;9947;57.722;12.012;2023-04-20T01:51:34;102734.66;;;1.32;100.00
19600;BME280;9947;57.722;12.012;2023-04-20T01:54:03;102738.19;;;1.32;100.00
19600;BME280;9947;57.722;12.012;2023-04-20T01:56:30;102743.53;;;1.26;100.00
19600;BME280;9947;57.722;12.012;2023-04-20T01:59:03;102738.25;;;1.20;100.00
19600;BME280;9947;57.722;12.012;2023-04-20T02:01:36;102733.84;;;1.14;100.00
19600;BME280;9947;57.722;12.012;2023-04-20T02:04:06;102736.56;;;1.10;100.00
19600;BME280;9947;57.722;12.012;2023-04-20T02:06:35;102735.69;;;1.05;100.00
19600;BME280;9947;57.722;12.012;2023-04-20T02:09:07;102732.16;;;1.00;100.00
19600;BME280;9947;57.722;12.012;2023-04-20T02:11:34;102731.22;;;1.04;100.00
19600;BME280;9947;57.722;12.012;2023-04-20T02:14:03;102723.28;;;0.99;100.00
19600;BME280;9947;57.722;12.012;2023-04-20T02:16:36;102725.06;;;0.99;100.00
19600;BME280;9947;57.722;12.012;2023-04-20T02:19:03;102729.50;;;0.95;100.00
19600;BME280;9947;57.722;12.012;2023-04-20T02:21:32;102726.84;;;0.95;100.00
19600;BME280;9947;57.722;12.012;2023-04-20T02:24:02;102729.53;;;0.90;100.00
19600;BME280;9947;57.722;12.012;2023-04-20T02:26:30;102731.31;;;0.90;100.00
19600;BME280;9947;57.722;12.012;2023-04-20T02:29:03;102727.78;;;0.89;100.00
19600;BME280;9947;57.722;12.012;2023-04-20T02:31:33;102728.63;;;0.96;100.00
19600;BME280;9947;57.722;12.012;2023-04-20T02:34:02;102729.53;;;0.90;100.00
19600;BME280;9947;57.722;12.012;2023-04-20T02:36:32;102729.59;;;0.81;100.00
19600;BME280;9947;57.722;12.012;2023-04-20T02:39:02;102727.84;;;0.80;100.00
19600;BME280;9947;57.722;12.012;2023-04-20T02:41:31;102725.16;;;0.77;100.00
19600;BME280;9947;57.722;12.012;2023-04-20T02:43:59;102729.59;;;0.74;100.00
19600;BME280;9947;57.722;12.012;2023-04-20T02:46:31;102724.31;;;0.71;100.00
19600;BME280;9947;57.722;12.012;2023-04-20T02:48:59;102722.53;;;0.68;100.00
19600;BME280;9947;57.722;12.012;2023-04-20T02:51:29;102721.66;;;0.71;100.00
19600;BME280;9947;57.722;12.012;2023-04-20T02:53:57;102726.09;;;0.67;100.00
19600;BME280;9947;57.722;12.012;2023-04-20T02:56:27;102721.69;;;0.65;100.00
19600;BME280;9947;57.722;12.012;2023-04-20T02:58:55;102718.97;;;0.71;100.00
19600;BME280;9947;57.722;12.012;2023-04-20T03:04:01;102717.25;;;0.60;100.00
19600;BME280;9947;57.722;12.012;2023-04-20T03:06:29;102712.84;;;0.58;100.00
19600;BME280;9947;57.722;12.012;2023-04-20T03:08:57;102710.16;;;0.61;100.00
19600;BME280;9947;57.722;12.012;2023-04-20T03:11:25;102705.69;;;0.66;100.00
19600;BME280;9947;57.722;12.012;2023-04-20T03:13:53;102716.31;;;0.71;100.00
19600;BME280;9947;57.722;12.012;2023-04-20T03:16:19;102713.69;;;0.65;100.00
19600;BME280;9947;57.722;12.012;2023-04-20T03:18:46;102719.03;;;0.63;100.00
19600;BME280;9947;57.722;12.012;2023-04-20T03:24:01;102719.94;;;0.56;100.00
19600;BME280;9947;57.722;12.012;2023-04-20T03:26:28;102720.81;;;0.61;100.00
19600;BME280;9947;57.722;12.012;2023-04-20T03:28:55;102718.13;;;0.66;100.00
19600;BME280;9947;57.722;12.012;2023-04-20T03:31:23;102723.44;;;0.69;100.00
19600;BME280;9947;57.722;12.012;2023-04-20T03:33:52;102718.09;;;0.69;100.00
19600;BME280;9947;57.722;12.012;2023-04-20T03:36:19;102724.31;;;0.69;100.00
19600;BME280;9947;57.722;12.012;2023-04-20T03:38:46;102719.88;;;0.68;100.00
19600;BME280;9947;57.722;12.012;2023-04-20T03:41:18;102722.59;;;0.60;100.00
19600;BME280;9947;57.722;12.012;2023-04-20T03:43:45;102723.44;;;0.66;100.00
19600;BME280;9947;57.722;12.012;2023-04-20T03:46:12;102726.09;;;0.69;100.00
19600;BME280;9947;57.722;12.012;2023-04-20T03:48:40;102723.38;;;0.78;100.00
19600;BME280;9947;57.722;12.012;2023-04-20T03:53:39;102718.91;;;0.86;100.00
19600;BME280;9947;57.722;12.012;2023-04-20T03:56:06;102718.88;;;0.95;100.00
19600;BME280;9947;57.722;12.012;2023-04-20T03:58:38;102722.34;;;1.03;100.00
19600;BME280;9947;57.722;12.012;2023-04-20T04:03:46;102709.81;;;1.23;100.00
19600;BME280;9947;57.722;12.012;2023-04-20T04:06:17;102705.16;;;1.53;100.00
19600;BME280;9947;57.722;12.012;2023-04-20T04:08:47;102707.56;;;1.82;100.00
19600;BME280;9947;57.722;12.012;2023-04-20T04:11:14;102702.13;;;1.96;100.00
19600;BME280;9947;57.722;12.012;2023-04-20T04:13:44;102700.22;;;2.10;100.00
19600;BME280;9947;57.722;12.012;2023-04-20T04:16:12;102704.28;;;2.43;100.00
19600;BME280;9947;57.722;12.012;2023-04-20T04:18:46;102709.31;;;2.69;100.00
19600;BME280;9947;57.722;12.012;2023-04-20T04:21:14;102712.44;;;3.01;100.00
19600;BME280;9947;57.722;12.012;2023-04-20T04:23:45;102712.78;;;3.37;100.00
19600;BME280;9947;57.722;12.012;2023-04-20T04:26:12;102707.03;;;3.63;100.00
19600;BME280;9947;57.722;12.012;2023-04-20T04:28:40;102712.88;;;3.32;100.00
19600;BME280;9947;57.722;12.012;2023-04-20T04:31:12;102721.44;;;3.54;100.00
19600;BME280;9947;57.722;12.012;2023-04-20T04:33:42;102723.78;;;3.76;100.00
19600;BME280;9947;57.722;12.012;2023-04-20T04:38:35;102715.25;;;4.51;100.00
19600;BME280;9947;57.722;12.012;2023-04-20T04:41:07;102725.13;;;4.49;100.00
19600;BME280;9947;57.722;12.012;2023-04-20T04:43:36;102720.56;;;4.94;100.00
19600;BME280;9947;57.722;12.012;2023-04-20T04:46:09;102723.03;;;5.05;99.72
19600;BME280;9947;57.722;12.012;2023-04-20T04:48:40;102716.31;;;5.25;96.50
19600;BME280;9947;57.722;12.012;2023-04-20T04:53:36;102714.91;;;5.09;95.47
19600;BME280;9947;57.722;12.012;2023-04-20T04:59:08;102716.69;;;4.69;100.00
19600;BME280;9947;57.722;12.012;2023-04-20T05:01:35;102715.34;;;4.88;99.64
19600;BME280;9947;57.722;12.012;2023-04-20T05:04:06;102715.31;;;4.89;99.81
19600;BME280;9947;57.722;12.012;2023-04-20T05:06:33;102708.69;;;5.44;97.08
19600;BME280;9947;57.722;12.012;2023-04-20T05:09:03;102703.69;;;6.03;92.51
19600;BME280;9947;57.722;12.012;2023-04-20T05:11:30;102708.06;;;5.70;90.03
19600;BME280;9947;57.722;12.012;2023-04-20T05:13:58;102698.38;;;6.02;89.13
19600;BME280;9947;57.722;12.012;2023-04-20T05:16:30;102701.66;;;6.75;85.66
19600;BME280;9947;57.722;12.012;2023-04-20T05:19:00;102709.56;;;7.10;81.25
19600;BME280;9947;57.722;12.012;2023-04-20T05:21:30;102700.81;;;7.32;76.39
19600;BME280;9947;57.722;12.012;2023-04-20T05:24:02;102695.97;;;7.96;71.19
19600;BME280;9947;57.722;12.012;2023-04-20T05:26:29;102697.22;;;8.62;65.77
19600;BME280;9947;57.722;12.012;2023-04-20T05:28:58;102694.88;;;9.00;63.88
19600;BME280;9947;57.722;12.012;2023-04-20T05:33:53;102696.72;;;8.51;63.56
19600;BME280;9947;57.722;12.012;2023-04-20T05:36:19;102695.03;;;8.48;63.86
19600;BME280;9947;57.722;12.012;2023-04-20T05:38:49;102696.78;;;9.19;60.70
19600;BME280;9947;57.722;12.012;2023-04-20T05:41:17;102706.34;;;9.05;61.39
19600;BME280;9947;57.722;12.012;2023-04-20T05:48:47;102710.75;;;8.60;61.34
19600;BME280;9947;57.722;12.012;2023-04-20T05:53:52;102701.63;;;8.64;61.32
19600;BME280;9947;57.722;12.012;2023-04-20T05:56:19;102708.59;;;8.93;58.26
19600;BME280;9947;57.722;12.012;2023-04-20T05:58:47;102709.25;;;8.52;59.14
19600;BME280;9947;57.722;12.012;2023-04-20T06:01:17;102709.50;;;8.46;60.01
19600;BME280;9947;57.722;12.012;2023-04-20T06:03:46;102702.66;;;8.84;59.33
19600;BME280;9947;57.722;12.012;2023-04-20T06:06:14;102704.44;;;8.61;59.94
19600;BME280;9947;57.722;12.012;2023-04-20T06:08:41;102707.22;;;8.82;58.96
19600;BME280;9947;57.722;12.012;2023-04-20T06:11:15;102700.00;;;8.36;59.52
19600;BME280;9947;57.722;12.012;2023-04-20T06:13:44;102699.19;;;8.57;58.90
19600;BME280;9947;57.722;12.012;2023-04-20T06:16:10;102699.56;;;8.21;60.24
19600;BME280;9947;57.722;12.012;2023-04-20T06:18:38;102703.72;;;8.30;60.39
19600;BME280;9947;57.722;12.012;2023-04-20T06:21:08;102698.53;;;8.50;59.71
19600;BME280;9947;57.722;12.012;2023-04-20T06:23:37;102706.63;;;7.99;61.54
19600;BME280;9947;57.722;12.012;2023-04-20T06:28:41;102715.41;;;8.30;60.67
19600;BME280;9947;57.722;12.012;2023-04-20T06:31:09;102707.00;;;8.15;61.56
19600;BME280;9947;57.722;12.012;2023-04-20T06:33:38;102706.34;;;7.82;63.22
19600;BME280;9947;57.722;12.012;2023-04-20T06:38:30;102713.78;;;7.73;63.54
19600;BME280;9947;57.722;12.012;2023-04-20T06:40:57;102697.34;;;7.83;62.57
19600;BME280;9947;57.722;12.012;2023-04-20T06:43:27;102704.81;;;7.73;63.05
19600;BME280;9947;57.722;12.012;2023-04-20T06:45:56;102701.16;;;7.76;63.09
19600;BME280;9947;57.722;12.012;2023-04-20T06:48:27;102695.94;;;7.71;62.69
19600;BME280;9947;57.722;12.012;2023-04-20T06:50:54;102702.50;;;7.62;63.17
19600;BME280;9947;57.722;12.012;2023-04-20T06:53:28;102705.91;;;7.67;63.74
19600;BME280;9947;57.722;12.012;2023-04-20T06:55:56;102697.56;;;7.75;62.63
19600;BME280;9947;57.722;12.012;2023-04-20T06:58:23;102704.16;;;7.66;63.39
19600;BME280;9947;57.722;12.012;2023-04-20T07:01:00;102706.34;;;7.55;63.82
19600;BME280;9947;57.722;12.012;2023-04-20T07:03:30;102702.63;;;7.59;62.89
19600;BME280;9947;57.722;12.012;2023-04-20T07:05:58;102702.09;;;7.74;63.54
19600;BME280;9947;57.722;12.012;2023-04-20T07:08:25;102705.38;;;7.84;62.96
19600;BME280;9947;57.722;12.012;2023-04-20T07:10:53;102698.81;;;7.91;62.16
19600;BME280;9947;57.722;12.012;2023-04-20T07:13:20;102696.09;;;7.93;62.78
19600;BME280;9947;57.722;12.012;2023-04-20T07:16:18;102700.00;;;8.09;61.24
19600;BME280;9947;57.722;12.012;2023-04-20T07:18:49;102679.44;;;8.07;60.45
19600;BME280;9947;57.722;12.012;2023-04-20T07:21:18;102685.22;;;8.21;59.20
19600;BME280;9947;57.722;12.012;2023-04-20T07:23:45;102688.16;;;8.40;59.03
19600;BME280;9947;57.722;12.012;2023-04-20T07:26:14;102689.97;;;8.39;58.71
19600;BME280;9947;57.722;12.012;2023-04-20T07:28:44;102683.44;;;8.46;58.40
19600;BME280;9947;57.722;12.012;2023-04-20T07:31:10;102676.53;;;8.62;58.15
19600;BME280;9947;57.722;12.012;2023-04-20T07:33:39;102681.75;;;8.67;57.15
19600;BME280;9947;57.722;12.012;2023-04-20T07:38:31;102689.41;;;9.01;56.49
19600;BME280;9947;57.722;12.012;2023-04-20T07:41:02;102674.72;;;9.08;55.59
19600;BME280;9947;57.722;12.012;2023-04-20T07:43:32;102681.00;;;9.09;54.60
19600;BME280;9947;57.722;12.012;2023-04-20T07:46:00;102664.34;;;9.21;53.89
19600;BME280;9947;57.722;12.012;2023-04-20T07:48:32;102673.38;;;9.20;54.47
19600;BME280;9947;57.722;12.012;2023-04-20T07:51:01;102677.66;;;9.47;53.66
19600;BME280;9947;57.722;12.012;2023-04-20T07:53:30;102672.13;;;9.50;53.57
19600;BME280;9947;57.722;12.012;2023-04-20T07:58:48;102662.38;;;9.68;51.98
19600;BME280;9947;57.722;12.012;2023-04-20T08:01:15;102660.47;;;9.92;51.65
19600;BME280;9947;57.722;12.012;2023-04-20T08:03:42;102663.78;;;9.99;49.98
19600;BME280;9947;57.722;12.012;2023-04-20T08:08:39;102665.72;;;10.36;48.20
19600;BME280;9947;57.722;12.012;2023-04-20T08:13:36;102670.03;;;10.60;47.52
19600;BME280;9947;57.722;12.012;2023-04-20T08:16:04;102664.47;;;10.63;46.00
19600;BME280;9947;57.722;12.012;2023-04-20T08:23:37;102672.56;;;11.02;46.08
19600;BME280;9947;57.722;12.012;2023-04-20T08:26:13;102659.75;;;10.87;45.56
19600;BME280;9947;57.722;12.012;2023-04-20T08:28:43;102664.66;;;10.79;42.71
19600;BME280;9947;57.722;12.012;2023-04-20T08:31:12;102662.91;;;10.97;43.67
19600;BME280;9947;57.722;12.012;2023-04-20T08:33:39;102665.16;;;11.06;42.82
19600;BME280;9947;57.722;12.012;2023-04-20T08:39:18;102665.50;;;11.17;41.37
19600;BME280;9947;57.722;12.012;2023-04-20T08:41:46;102665.81;;;11.30;41.00
19600;BME280;9947;57.722;12.012;2023-04-20T08:46:48;102653.88;;;11.34;40.75
19600;BME280;9947;57.722;12.012;2023-04-20T08:49:19;102656.50;;;11.35;40.36
19600;BME280;9947;57.722;12.012;2023-04-20T08:51:50;102651.69;;;11.59;40.18
19600;BME280;9947;57.722;12.012;2023-04-20T08:54:21;102652.00;;;11.53;38.85
19600;BME280;9947;57.722;12.012;2023-04-20T08:56:50;102645.31;;;11.60;38.47
19600;BME280;9947;57.722;12.012;2023-04-20T08:59:21;102638.84;;;11.82;38.79
19600;BME280;9947;57.722;12.012;2023-04-20T09:01:49;102642.97;;;11.89;38.02
19600;BME280;9947;57.722;12.012;2023-04-20T09:04:17;102637.38;;;11.92;37.55
19600;BME280;9947;57.722;12.012;2023-04-20T09:06:45;102634.13;;;11.85;37.95
19600;BME280;9947;57.722;12.012;2023-04-20T09:09:15;102647.59;;;11.87;38.07
19600;BME280;9947;57.722;12.012;2023-04-20T09:11:45;102629.81;;;11.81;38.11
19600;BME280;9947;57.722;12.012;2023-04-20T09:14:14;102640.81;;;11.95;37.47
19600;BME280;9947;57.722;12.012;2023-04-20T09:16:53;102641.94;;;12.09;36.94
19600;BME280;9947;57.722;12.012;2023-04-20T09:19:22;102632.59;;;12.14;36.45
19600;BME280;9947;57.722;12.012;2023-04-20T09:21:53;102634.16;;;12.35;36.63
19600;BME280;9947;57.722;12.012;2023-04-20T09:24:22;102641.25;;;12.38;35.91
19600;BME280;9947;57.722;12.012;2023-04-20T09:26:53;102632.84;;;12.27;36.12
19600;BME280;9947;57.722;12.012;2023-04-20T09:29:22;102642.72;;;12.61;36.19
19600;BME280;9947;57.722;12.012;2023-04-20T09:31:58;102624.09;;;12.38;36.01
19600;BME280;9947;57.722;12.012;2023-04-20T09:34:28;102619.56;;;12.38;36.08
19600;BME280;9947;57.722;12.012;2023-04-20T09:36:56;102613.56;;;12.64;35.86
19600;BME280;9947;57.722;12.012;2023-04-20T09:39:25;102617.88;;;12.84;35.48
19600;BME280;9947;57.722;12.012;2023-04-20T09:42:02;102619.44;;;12.73;34.98
19600;BME280;9947;57.722;12.012;2023-04-20T09:44:39;102619.91;;;12.81;35.00
19600;BME280;9947;57.722;12.012;2023-04-20T09:47:07;102614.56;;;12.95;34.96
19600;BME280;9947;57.722;12.012;2023-04-20T09:49:35;102615.09;;;13.02;34.28
19600;BME280;9947;57.722;12.012;2023-04-20T09:52:03;102603.56;;;13.30;34.93
19600;BME280;9947;57.722;12.012;2023-04-20T09:54:37;102606.41;;;13.26;34.05
19600;BME280;9947;57.722;12.012;2023-04-20T10:02:08;102609.75;;;13.16;34.25
19600;BME280;9947;57.722;12.012;2023-04-20T10:04:49;102606.22;;;13.45;34.28
19600;BME280;9947;57.722;12.012;2023-04-20T10:09:46;102598.66;;;13.50;33.93
19600;BME280;9947;57.722;12.012;2023-04-20T10:12:16;102604.72;;;13.55;33.86
19600;BME280;9947;57.722;12.012;2023-04-20T10:14:54;102600.31;;;13.53;33.87
19600;BME280;9947;57.722;12.012;2023-04-20T10:17:30;102594.56;;;13.43;33.75
19600;BME280;9947;57.722;12.012;2023-04-20T10:19:57;102587.66;;;13.38;33.83
19600;BME280;9947;57.722;12.012;2023-04-20T10:22:27;102598.44;;;13.39;34.13
19600;BME280;9947;57.722;12.012;2023-04-20T10:24:58;102579.94;;;13.46;34.27
19600;BME280;9947;57.722;12.012;2023-04-20T10:27:30;102591.16;;;13.55;33.79
19600;BME280;9947;57.722;12.012;2023-04-20T10:32:32;102586.41;;;13.59;33.22
19600;BME280;9947;57.722;12.012;2023-04-20T10:35:01;102590.69;;;13.77;33.14
19600;BME280;9947;57.722;12.012;2023-04-20T10:37:28;102581.84;;;13.74;33.22
19600;BME280;9947;57.722;12.012;2023-04-20T10:39:59;102583.84;;;13.86;33.01
19600;BME280;9947;57.722;12.012;2023-04-20T10:42:40;102584.53;;;13.89;33.01
19600;BME280;9947;57.722;12.012;2023-04-20T10:45:08;102583.75;;;13.87;32.80
19600;BME280;9947;57.722;12.012;2023-04-20T10:47:38;102576.97;;;13.95;33.48
19600;BME280;9947;57.722;12.012;2023-04-20T10:50:10;102575.69;;;13.86;33.31
19600;BME280;9947;57.722;12.012;2023-04-20T10:52:43;102567.16;;;13.92;32.91
19600;BME280;9947;57.722;12.012;2023-04-20T10:55:21;102577.56;;;14.28;32.42
19600;BME280;9947;57.722;12.012;2023-04-20T10:57:49;102563.81;;;14.31;31.73
19600;BME280;9947;57.722;12.012;2023-04-20T11:00:18;102570.88;;;14.34;32.00
19600;BME280;9947;57.722;12.012;2023-04-20T11:02:48;102571.47;;;14.10;32.40
19600;BME280;9947;57.722;12.012;2023-04-20T11:05:16;102571.97;;;14.31;32.56
19600;BME280;9947;57.722;12.012;2023-04-20T11:07:49;102558.34;;;14.31;32.84
19600;BME280;9947;57.722;12.012;2023-04-20T11:10:24;102555.75;;;14.44;32.38
19600;BME280;9947;57.722;12.012;2023-04-20T11:12:53;102557.41;;;14.46;32.20
19600;BME280;9947;57.722;12.012;2023-04-20T11:15:30;102546.72;;;14.43;32.00
19600;BME280;9947;57.722;12.012;2023-04-20T11:18:07;102556.22;;;14.50;31.75
19600;BME280;9947;57.722;12.012;2023-04-20T11:20:38;102544.84;;;14.44;31.60
19600;BME280;9947;57.722;12.012;2023-04-20T11:23:15;102546.97;;;14.25;31.96
19600;BME280;9947;57.722;12.012;2023-04-20T11:25:51;102538.59;;;14.42;31.94
19600;BME280;9947;57.722;12.012;2023-04-20T11:28:25;102540.75;;;14.37;31.48
19600;BME280;9947;57.722;12.012;2023-04-20T11:30:58;102532.03;;;14.60;31.88
19600;BME280;9947;57.722;12.012;2023-04-20T11:33:33;102530.75;;;14.52;31.83
19600;BME280;9947;57.722;12.012;2023-04-20T11:36:01;102525.88;;;14.57;32.05
19600;BME280;9947;57.722;12.012;2023-04-20T11:38:30;102521.53;;;14.81;32.94
19600;BME280;9947;57.722;12.012;2023-04-20T11:40:58;102529.56;;;14.70;31.71
19600;BME280;9947;57.722;12.012;2023-04-20T11:43:29;102531.28;;;14.85;31.54
19600;BME280;9947;57.722;12.012;2023-04-20T11:46:01;102520.56;;;14.82;31.59
19600;BME280;9947;57.722;12.012;2023-04-20T11:48:30;102524.47;;;14.78;31.52
19600;BME280;9947;57.722;12.012;2023-04-20T11:51:02;102530.75;;;14.93;31.66
19600;BME280;9947;57.722;12.012;2023-04-20T11:53:30;102521.63;;;14.94;31.90
19600;BME280;9947;57.722;12.012;2023-04-20T11:55:57;102515.22;;;15.07;31.83
19600;BME280;9947;57.722;12.012;2023-04-20T11:58:28;102529.78;;;14.94;31.54
19600;BME280;9947;57.722;12.012;2023-04-20T12:00:55;102518.28;;;15.03;31.41
19600;BME280;9947;57.722;12.012;2023-04-20T12:03:24;102519.91;;;15.05;31.28
19600;BME280;9947;57.722;12.012;2023-04-20T12:05:52;102505.41;;;15.05;31.71
19600;BME280;9947;57.722;12.012;2023-04-20T12:08:19;102510.72;;;14.94;31.71
19600;BME280;9947;57.722;12.012;2023-04-20T12:10:46;102505.22;;;15.08;31.75
19600;BME280;9947;57.722;12.012;2023-04-20T12:13:15;102502.09;;;15.27;31.61
19600;BME280;9947;57.722;12.012;2023-04-20T12:15:43;102500.31;;;15.40;31.34
19600;BME280;9947;57.722;12.012;2023-04-20T12:18:10;102501.50;;;15.36;31.52
19600;BME280;9947;57.722;12.012;2023-04-20T12:20:40;102499.97;;;15.45;31.79
19600;BME280;9947;57.722;12.012;2023-04-20T12:23:12;102493.00;;;15.40;31.56
19600;BME280;9947;57.722;12.012;2023-04-20T12:25:41;102499.34;;;15.54;31.70
19600;BME280;9947;57.722;12.012;2023-04-20T12:28:09;102490.03;;;15.31;31.79
19600;BME280;9947;57.722;12.012;2023-04-20T12:30:39;102497.47;;;15.54;31.37
19600;BME280;9947;57.722;12.012;2023-04-20T12:33:07;102483.09;;;15.52;31.00
19600;BME280;9947;57.722;12.012;2023-04-20T12:35:34;102487.94;;;15.34;31.29
19600;BME280;9947;57.722;12.012;2023-04-20T12:38:01;102481.63;;;15.34;31.17
19600;BME280;9947;57.722;12.012;2023-04-20T12:40:31;102484.59;;;15.43;31.29
19600;BME280;9947;57.722;12.012;2023-04-20T12:43:02;102480.69;;;15.48;31.89
19600;BME280;9947;57.722;12.012;2023-04-20T12:45:29;102478.78;;;15.62;31.36
19600;BME280;9947;57.722;12.012;2023-04-20T12:47:58;102469.81;;;15.60;31.26
19600;BME280;9947;57.722;12.012;2023-04-20T12:50:25;102480.25;;;15.54;31.41
19600;BME280;9947;57.722;12.012;2023-04-20T12:52:52;102475.06;;;15.63;31.88
19600;BME280;9947;57.722;12.012;2023-04-20T12:55:25;102484.16;;;15.37;31.50
19600;BME280;9947;57.722;12.012;2023-04-20T12:57:56;102483.41;;;15.48;32.18
19600;BME280;9947;57.722;12.012;2023-04-20T13:00:24;102470.31;;;15.40;31.89
19600;BME280;9947;57.722;12.012;2023-04-20T13:02:54;102462.03;;;15.41;31.81
19600;BME280;9947;57.722;12.012;2023-04-20T13:05:22;102461.72;;;15.46;31.74
19600;BME280;9947;57.722;12.012;2023-04-20T13:10:38;102462.63;;;15.59;31.48
19600;BME280;9947;57.722;12.012;2023-04-20T13:13:11;102464.75;;;15.54;31.24
19600;BME280;9947;57.722;12.012;2023-04-20T13:15:39;102459.31;;;15.54;31.25
19600;BME280;9947;57.722;12.012;2023-04-20T13:18:09;102454.97;;;15.52;31.29
19600;BME280;9947;57.722;12.012;2023-04-20T13:20:39;102451.34;;;15.51;31.16
19600;BME280;9947;57.722;12.012;2023-04-20T13:23:06;102444.53;;;15.71;31.39
19600;BME280;9947;57.722;12.012;2023-04-20T13:25:36;102455.19;;;15.49;31.09
19600;BME280;9947;57.722;12.012;2023-04-20T13:28:03;102448.31;;;15.56;31.11
19600;BME280;9947;57.722;12.012;2023-04-20T13:30:33;102436.56;;;15.81;31.10
19600;BME280;9947;57.722;12.012;2023-04-20T13:33:09;102433.06;;;15.91;30.79
19600;BME280;9947;57.722;12.012;2023-04-20T13:35:36;102437.00;;;15.75;30.63
19600;BME280;9947;57.722;12.012;2023-04-20T13:38:04;102432.81;;;15.56;30.70
19600;BME280;9947;57.722;12.012;2023-04-20T13:40:33;102427.50;;;15.80;30.95
19600;BME280;9947;57.722;12.012;2023-04-20T13:43:01;102425.03;;;15.64;30.60
19600;BME280;9947;57.722;12.012;2023-04-20T13:45:32;102424.16;;;15.64;30.75
19600;BME280;9947;57.722;12.012;2023-04-20T13:48:02;102426.53;;;15.68;30.57
19600;BME280;9947;57.722;12.012;2023-04-20T13:50:30;102422.19;;;15.66;30.20
19600;BME280;9947;57.722;12.012;2023-04-20T13:52:57;102408.41;;;15.80;30.46
19600;BME280;9947;57.722;12.012;2023-04-20T13:55:27;102420.72;;;15.86;30.22
19600;BME280;9947;57.722;12.012;2023-04-20T13:57:55;102422.91;;;15.81;30.62
19600;BME280;9947;57.722;12.012;2023-04-20T14:00:25;102413.00;;;15.80;30.41
19600;BME280;9947;57.722;12.012;2023-04-20T14:03:13;102418.00;;;15.98;30.49
19600;BME280;9947;57.722;12.012;2023-04-20T14:05:45;102411.16;;;15.80;30.21
19600;BME280;9947;57.722;12.012;2023-04-20T14:08:15;102409.69;;;16.00;30.33
19600;BME280;9947;57.722;12.012;2023-04-20T14:10:50;102402.22;;;15.91;30.06
19600;BME280;9947;57.722;12.012;2023-04-20T14:13:20;102401.34;;;15.90;29.93